createdAt,value
2023-02-04T00:00:53.438Z,5.0
2023-02-04T00:05:30.048Z,5.0
2023-02-04T00:10:30.945Z,4.9
2023-02-04T00:15:19.241Z,4.9
2023-02-04T00:20:47.252Z,4.8
2023-02-04T00:25:31.161Z,4.8
2023-02-04T00:30:20.290Z,4.8
2023-02-04T00:35:25.668Z,4.8
2023-02-04T00:40:50.994Z,4.8
2023-02-04T00:45:20.578Z,4.8
2023-02-04T00:50:26.635Z,4.9
2023-02-04T00:55:19.238Z,4.8
2023-02-04T01:00:41.407Z,4.8
2023-02-04T01:05:28.112Z,4.7
2023-02-04T01:10:17.433Z,4.8
2023-02-04T01:15:23.313Z,4.7
2023-02-04T01:20:49.185Z,4.7
2023-02-04T01:25:18.387Z,4.8
2023-02-04T01:30:24.566Z,4.7
2023-02-04T01:35:30.264Z,4.7
2023-02-04T01:40:37.475Z,4.7
2023-02-04T01:45:25.378Z,4.6
2023-02-04T01:50:31.940Z,4.6
2023-02-04T01:55:20.468Z,4.5
2023-02-04T02:01:00.785Z,4.5
2023-02-04T02:05:37.319Z,4.5
2023-02-04T02:10:21.574Z,4.4
2023-02-04T02:15:27.616Z,4.4
2023-02-04T02:20:56.204Z,4.3
2023-02-04T02:25:22.094Z,4.2
2023-02-04T02:30:28.283Z,4.2
2023-02-04T02:35:16.668Z,4.2
2023-02-04T02:40:42.198Z,4.1
2023-02-04T02:45:28.776Z,4.1
2023-02-04T02:50:18.147Z,4.1
2023-02-04T02:55:24.010Z,4.0
2023-02-04T03:01:09.268Z,4.1
2023-02-04T03:05:22.797Z,4.0
2023-02-04T03:10:25.387Z,4.0
2023-02-04T03:15:31.553Z,4.0
2023-02-04T03:20:41.755Z,4.0
2023-02-04T03:25:26.465Z,4.0
2023-02-04T03:30:33.292Z,3.9
2023-02-04T03:35:21.116Z,4.0
2023-02-04T03:40:47.648Z,4.0
2023-02-04T03:45:44.582Z,4.0
2023-02-04T03:50:22.616Z,4.0
2023-02-04T03:55:28.402Z,4.0
2023-02-04T04:01:26.549Z,3.9
2023-02-04T04:05:28.373Z,3.0
2023-02-04T04:10:29.735Z,1.8
2023-02-04T04:15:19.464Z,1.7
2023-02-04T04:20:41.006Z,1.8
2023-02-04T04:25:30.278Z,1.8
2023-02-04T04:30:19.346Z,1.9
2023-02-04T04:35:24.652Z,1.9
2023-02-04T04:40:50.174Z,1.8
2023-02-04T04:45:19.581Z,1.8
2023-02-04T04:50:25.634Z,1.7
2023-02-04T04:55:31.914Z,1.7
2023-02-04T05:01:01.372Z,1.6
2023-02-04T05:05:31.662Z,1.6
2023-02-04T05:10:36.670Z,1.6
2023-02-04T05:15:22.801Z,1.6
2023-02-04T05:20:52.438Z,1.6
2023-02-04T05:25:17.438Z,1.5
2023-02-04T05:30:23.464Z,1.5
2023-02-04T05:35:29.235Z,1.4
2023-02-04T05:40:36.396Z,1.4
2023-02-04T05:45:24.237Z,1.4
2023-02-04T05:50:30.730Z,1.4
2023-02-04T05:55:19.448Z,1.3
2023-02-04T06:00:55.504Z,1.3
2023-02-04T06:05:35.715Z,1.2
2023-02-04T06:10:20.401Z,1.1
2023-02-04T06:15:26.564Z,1.0
2023-02-04T06:20:52.165Z,0.9
2023-02-04T06:25:21.108Z,0.9
2023-02-04T06:30:27.116Z,0.9
2023-02-04T06:35:33.441Z,1.0
2023-02-04T06:40:42.394Z,1.0
2023-02-04T06:45:28.693Z,0.9
2023-02-04T06:50:17.561Z,1.0
2023-02-04T06:55:23.639Z,1.1
2023-02-04T07:00:53.571Z,1.1
2023-02-04T07:05:18.125Z,1.1
2023-02-04T07:10:24.775Z,1.1
2023-02-04T07:15:30.654Z,1.0
2023-02-04T07:20:40.667Z,1.0
2023-02-04T07:25:25.229Z,1.1
2023-02-04T07:30:31.723Z,1.3
2023-02-04T07:35:19.690Z,1.6
2023-02-04T07:40:45.287Z,1.7
2023-02-04T07:45:32.018Z,1.3
2023-02-04T07:50:21.037Z,1.2
2023-02-04T07:55:27.519Z,1.3
2023-02-04T08:01:40.472Z,1.2
2023-02-04T08:05:27.798Z,1.1
2023-02-04T08:10:30.961Z,1.0
2023-02-04T08:15:18.206Z,1.2
2023-02-04T08:20:40.406Z,1.2
2023-02-04T08:25:29.681Z,1.1
2023-02-04T08:30:18.892Z,1.2
2023-02-04T08:35:24.233Z,1.2
2023-02-04T08:40:54.100Z,1.3
2023-02-04T08:45:19.341Z,1.5
2023-02-04T08:50:25.478Z,1.8
2023-02-04T08:55:31.684Z,2.1
2023-02-04T09:00:51.949Z,2.4
2023-02-04T09:05:25.909Z,2.3
2023-02-04T09:10:32.543Z,2.2
2023-02-04T09:15:21.162Z,2.5
2023-02-04T09:20:47.090Z,2.5
2023-02-04T09:25:33.063Z,2.3
2023-02-04T09:30:22.298Z,2.4
2023-02-04T09:35:27.672Z,2.0
2023-02-04T09:40:32.868Z,1.8
2023-02-04T09:45:22.783Z,1.7
2023-02-04T09:50:28.877Z,1.7
2023-02-04T09:55:18.086Z,1.8
2023-02-04T10:01:04.944Z,2.0
2023-02-04T10:05:35.875Z,2.1
2023-02-04T10:10:20.842Z,1.9
2023-02-04T10:15:26.742Z,1.8
2023-02-04T10:20:50.979Z,1.7
2023-02-04T10:25:20.470Z,1.8
2023-02-04T10:30:26.623Z,1.9
2023-02-04T10:35:32.194Z,1.9
2023-02-04T10:40:41.902Z,2.0
2023-02-04T10:45:27.454Z,1.9
2023-02-04T10:50:33.700Z,1.9
2023-02-04T10:55:22.316Z,1.8
2023-02-04T11:01:12.265Z,1.9
2023-02-04T11:05:16.906Z,1.7
2023-02-04T11:10:23.078Z,1.8
2023-02-04T11:15:29.027Z,1.9
2023-02-04T11:20:19.426Z,2.0
2023-02-04T11:25:24.235Z,2.1
2023-02-04T11:30:30.126Z,1.9
2023-02-04T11:35:18.870Z,2.7
2023-02-04T11:40:43.602Z,3.1
2023-02-04T11:45:31.188Z,2.7
2023-02-04T11:50:20.023Z,2.5
2023-02-04T11:55:26.157Z,2.6
2023-02-04T12:01:32.953Z,2.6
2023-02-04T12:05:27.926Z,2.7
2023-02-04T12:10:28.136Z,2.6
2023-02-04T12:15:34.045Z,2.5
2023-02-04T12:20:42.243Z,2.3
2023-02-04T12:25:28.711Z,2.2
2023-02-04T12:30:17.889Z,2.3
2023-02-04T12:35:23.311Z,2.4
2023-02-04T12:40:53.105Z,2.4
2023-02-04T12:45:18.479Z,2.2
2023-02-04T12:50:24.594Z,2.2
2023-02-04T12:55:31.110Z,2.0
2023-02-04T13:00:41.617Z,2.7
2023-02-04T13:05:25.087Z,2.8
2023-02-04T13:10:31.249Z,3.3
2023-02-04T13:15:20.186Z,3.2
2023-02-04T13:20:47.583Z,2.7
2023-02-04T13:25:32.544Z,2.4
2023-02-04T13:30:21.260Z,3.0
2023-02-04T13:35:26.869Z,3.3
2023-02-04T13:40:52.352Z,3.1
2023-02-04T13:45:22.173Z,3.3
2023-02-04T13:50:27.915Z,3.6
2023-02-04T13:55:16.928Z,3.6
2023-02-04T14:00:53.187Z,3.6
2023-02-04T14:05:35.131Z,3.1
2023-02-04T14:10:19.281Z,3.0
2023-02-04T14:15:25.229Z,2.9
2023-02-04T14:20:49.946Z,2.6
2023-02-04T14:25:19.541Z,2.9
2023-02-04T14:30:25.718Z,2.8
2023-02-04T14:35:31.188Z,3.2
2023-02-04T14:40:44.886Z,2.8
2023-02-04T14:45:26.115Z,2.6
2023-02-04T14:50:32.741Z,2.5
2023-02-04T14:55:21.258Z,2.3
2023-02-04T15:00:56.582Z,2.3
2023-02-04T15:05:32.830Z,2.3
2023-02-04T15:10:21.964Z,2.7
2023-02-04T15:15:27.948Z,2.8
2023-02-04T15:20:39.417Z,2.5
2023-02-04T15:25:22.835Z,2.3
2023-02-04T15:30:29.182Z,2.2
2023-02-04T15:35:18.415Z,2.1
2023-02-04T15:40:43.515Z,2.1
2023-02-04T15:45:30.578Z,2.0
2023-02-04T15:50:19.664Z,1.9
2023-02-04T15:55:25.541Z,1.9
2023-02-04T16:01:16.601Z,1.9
2023-02-04T16:05:25.729Z,1.8
2023-02-04T16:10:26.874Z,1.7
2023-02-04T16:15:33.196Z,1.5
2023-02-04T16:20:22.561Z,1.4
2023-02-04T16:25:27.175Z,1.3
2023-02-04T16:30:33.265Z,1.1
2023-02-04T16:35:21.665Z,1.0
2023-02-04T16:40:46.750Z,0.8
2023-02-04T16:45:16.885Z,0.6
2023-02-04T16:50:22.852Z,0.4
2023-02-04T16:55:28.934Z,0.3
2023-02-04T17:00:45.971Z,-0.2
2023-02-04T17:05:24.506Z,-0.7
2023-02-04T17:10:31.125Z,-1.0
2023-02-04T17:15:19.919Z,-1.2
2023-02-04T17:20:50.344Z,-1.3
2023-02-04T17:25:32.293Z,-1.5
2023-02-04T17:30:20.585Z,-1.6
2023-02-04T17:35:27.259Z,-1.8
2023-02-04T17:40:52.604Z,-1.9
2023-02-04T17:45:21.942Z,-2.0
2023-02-04T17:50:27.921Z,-2.1
2023-02-04T17:55:16.878Z,-2.3
2023-02-04T18:01:08.797Z,-2.3
2023-02-04T18:05:35.786Z,-2.5
2023-02-04T18:10:20.070Z,-2.5
2023-02-04T18:15:25.092Z,-2.7
2023-02-04T18:20:50.416Z,-2.8
2023-02-04T18:25:19.432Z,-2.9
2023-02-04T18:30:25.587Z,-2.9
2023-02-04T18:35:31.218Z,-2.9
2023-02-04T18:40:40.612Z,-3.1
2023-02-04T18:45:26.388Z,-3.0
2023-02-04T18:50:32.867Z,-2.9
2023-02-04T18:55:21.458Z,-2.9
2023-02-04T19:00:57.284Z,-3.0
2023-02-04T19:05:37.127Z,-2.9
2023-02-04T19:10:22.300Z,-3.0
2023-02-04T19:15:28.139Z,-3.1
2023-02-04T19:20:36.753Z,-3.2
2023-02-04T19:25:23.171Z,-3.4
2023-02-04T19:30:29.208Z,-3.6
2023-02-04T19:35:17.649Z,-3.3
2023-02-04T19:40:47.672Z,-3.3
2023-02-04T19:45:29.789Z,-3.5
2023-02-04T19:50:18.666Z,-3.6
2023-02-04T19:55:24.956Z,-3.7
2023-02-04T20:01:23.819Z,-3.8
2023-02-04T20:05:26.618Z,-3.8
2023-02-04T20:10:31.820Z,-3.8
2023-02-04T20:15:34.272Z,-3.8
2023-02-04T20:20:44.514Z,-4.0
2023-02-04T20:25:27.559Z,-4.2
2023-02-04T20:30:34.455Z,-4.3
2023-02-04T20:35:22.064Z,-4.3
2023-02-04T20:40:47.908Z,-4.4
2023-02-04T20:45:17.183Z,-4.3
2023-02-04T20:50:23.147Z,-4.3
2023-02-04T20:55:29.202Z,-4.3
2023-02-04T21:00:57.602Z,-4.4
2023-02-04T21:05:24.478Z,-4.4
2023-02-04T21:10:30.695Z,-4.6
2023-02-04T21:15:19.591Z,-4.7
2023-02-04T21:20:46.776Z,-4.7
2023-02-04T21:25:32.171Z,-4.7
2023-02-04T21:30:20.752Z,-4.8
2023-02-04T21:35:26.125Z,-4.9
2023-02-04T21:40:49.843Z,-4.9
2023-02-04T21:45:21.371Z,-5.0
2023-02-04T21:50:27.288Z,-5.1
2023-02-04T21:55:33.978Z,-5.2
2023-02-04T22:01:03.173Z,-5.2
2023-02-04T22:05:33.944Z,-5.1
2023-02-04T22:10:20.997Z,-5.1
2023-02-04T22:15:26.835Z,-5.2
2023-02-04T22:20:48.350Z,-5.4
2023-02-04T22:25:17.950Z,-5.5
2023-02-04T22:30:24.714Z,-5.4
2023-02-04T22:35:30.541Z,-5.7
2023-02-04T22:40:40.758Z,-5.7
2023-02-04T22:45:25.548Z,-5.5
2023-02-04T22:50:32.041Z,-5.8
2023-02-04T22:55:20.563Z,-5.9
2023-02-04T23:00:53.788Z,-5.7
2023-02-04T23:05:35.256Z,-5.7
2023-02-04T23:10:21.344Z,-5.8
2023-02-04T23:15:27.972Z,-5.9
2023-02-04T23:20:57.317Z,-6.0
2023-02-04T23:25:22.544Z,-5.9
2023-02-04T23:30:28.361Z,-5.9
2023-02-04T23:35:16.857Z,-6.0
2023-02-04T23:40:43.584Z,-6.0
2023-02-04T23:45:29.149Z,-6.1
2023-02-04T23:50:18.086Z,-6.2
2023-02-04T23:55:24.324Z,-6.1
